createdAt,value
2017-05-20T00:02:09.487Z,17.80
2017-05-20T00:04:39.015Z,17.70
2017-05-20T00:07:08.504Z,17.60
2017-05-20T00:09:38.026Z,17.30
2017-05-20T00:12:07.546Z,17.00
2017-05-20T00:14:37.060Z,16.90
2017-05-20T00:17:06.590Z,16.70
2017-05-20T00:19:36.096Z,16.60
2017-05-20T00:22:05.590Z,16.50
2017-05-20T00:24:35.137Z,16.50
2017-05-20T00:27:04.640Z,16.30
2017-05-20T00:29:34.175Z,16.10
2017-05-20T00:32:03.692Z,16.00
2017-05-20T00:34:33.194Z,16.00
2017-05-20T00:37:02.724Z,15.80
2017-05-20T00:39:32.229Z,15.80
2017-05-20T00:42:01.764Z,15.80
2017-05-20T00:44:31.263Z,15.80
2017-05-20T00:47:00.774Z,16.00
2017-05-20T00:49:30.290Z,16.00
2017-05-20T00:51:59.819Z,15.90
2017-05-20T00:54:29.363Z,15.80
2017-05-20T00:56:58.896Z,16.00
2017-05-20T00:59:28.402Z,16.00
2017-05-20T01:01:57.922Z,15.90
2017-05-20T01:04:27.428Z,15.70
2017-05-20T01:06:57.006Z,15.70
2017-05-20T01:09:26.524Z,15.80
2017-05-20T01:11:56.038Z,15.70
2017-05-20T01:14:25.533Z,15.60
2017-05-20T01:16:55.103Z,15.60
2017-05-20T01:19:24.634Z,15.50
2017-05-20T01:21:54.143Z,15.60
2017-05-20T01:24:23.669Z,15.70
2017-05-20T01:26:53.153Z,15.60
2017-05-20T01:29:22.680Z,15.70
2017-05-20T01:31:51.837Z,15.80
2017-05-20T01:34:21.341Z,15.70
2017-05-20T01:36:50.848Z,15.70
2017-05-20T01:39:20.007Z,15.70
2017-05-20T01:41:49.183Z,15.70
2017-05-20T01:44:18.691Z,15.70
2017-05-20T01:46:48.215Z,15.70
2017-05-20T01:49:17.743Z,15.70
2017-05-20T01:51:47.304Z,15.70
2017-05-20T01:54:16.811Z,15.50
2017-05-20T01:56:46.536Z,15.60
2017-05-20T01:59:16.101Z,15.60
2017-05-20T02:01:45.599Z,15.70
2017-05-20T02:04:15.130Z,15.70
2017-05-20T02:06:44.745Z,15.70
2017-05-20T02:09:14.239Z,15.70
2017-05-20T02:11:43.751Z,15.60
2017-05-20T02:14:13.281Z,15.60
2017-05-20T02:16:42.852Z,15.60
2017-05-20T02:19:12.521Z,15.50
2017-05-20T02:21:42.037Z,15.50
2017-05-20T02:24:11.533Z,15.50
2017-05-20T02:26:41.034Z,15.60
2017-05-20T02:29:10.520Z,15.60
2017-05-20T02:31:40.027Z,15.60
2017-05-20T02:34:09.517Z,15.60
2017-05-20T02:36:39.030Z,15.50
2017-05-20T02:39:08.518Z,15.50
2017-05-20T02:41:38.040Z,15.60
2017-05-20T02:44:07.540Z,15.60
2017-05-20T02:46:37.049Z,15.50
2017-05-20T02:49:06.539Z,15.50
2017-05-20T02:51:36.029Z,15.50
2017-05-20T02:54:05.546Z,15.60
2017-05-20T02:56:35.069Z,15.50
2017-05-20T02:59:04.597Z,15.50
2017-05-20T03:01:34.117Z,15.60
2017-05-20T03:04:03.650Z,15.50
2017-05-20T03:06:33.150Z,15.60
2017-05-20T03:09:02.662Z,15.60
2017-05-20T03:11:32.156Z,15.60
2017-05-20T03:14:01.673Z,15.40
2017-05-20T03:16:31.205Z,15.50
2017-05-20T03:19:00.711Z,15.60
2017-05-20T03:21:30.209Z,15.50
2017-05-20T03:23:59.748Z,15.50
2017-05-20T03:26:29.266Z,15.50
2017-05-20T03:28:58.799Z,15.50
2017-05-20T03:31:28.333Z,15.30
2017-05-20T03:33:57.875Z,15.30
2017-05-20T03:36:27.376Z,15.20
2017-05-20T03:38:56.969Z,15.10
2017-05-20T03:41:26.507Z,15.00
2017-05-20T03:43:56.016Z,15.00
2017-05-20T03:46:25.555Z,15.00
2017-05-20T03:48:55.077Z,14.90
2017-05-20T03:51:24.598Z,14.80
2017-05-20T03:53:54.117Z,14.90
2017-05-20T03:56:23.637Z,14.70
2017-05-20T03:58:53.136Z,14.90
2017-05-20T04:03:53.657Z,14.90
2017-05-20T04:06:23.177Z,15.00
2017-05-20T04:08:52.678Z,15.00
2017-05-20T04:11:22.199Z,15.10
2017-05-20T04:13:51.701Z,15.00
2017-05-20T04:16:21.244Z,15.10
2017-05-20T04:18:50.732Z,15.10
2017-05-20T04:21:20.252Z,15.30
2017-05-20T04:23:49.817Z,15.20
2017-05-20T04:26:19.364Z,15.10
2017-05-20T04:28:48.899Z,15.00
2017-05-20T04:31:18.412Z,14.70
2017-05-20T04:33:47.960Z,14.40
2017-05-20T04:36:17.468Z,14.20
2017-05-20T04:38:46.997Z,14.00
2017-05-20T04:41:16.506Z,13.90
2017-05-20T04:43:46.018Z,13.80
2017-05-20T04:46:15.523Z,13.70
2017-05-20T04:48:45.077Z,13.70
2017-05-20T04:51:14.575Z,13.70
2017-05-20T04:53:44.092Z,13.70
2017-05-20T04:56:13.580Z,13.90
2017-05-20T04:58:43.088Z,14.00
2017-05-20T05:01:12.588Z,14.10
2017-05-20T05:03:42.127Z,14.10
2017-05-20T05:06:11.730Z,14.20
2017-05-20T05:08:41.273Z,14.10
2017-05-20T05:11:10.791Z,14.00
2017-05-20T05:13:40.293Z,14.00
2017-05-20T05:16:09.843Z,14.10
2017-05-20T05:18:39.380Z,14.10
2017-05-20T05:21:08.883Z,14.20
2017-05-20T05:23:38.390Z,14.40
2017-05-20T05:26:07.926Z,14.70
2017-05-20T05:28:37.429Z,14.80
2017-05-20T05:31:06.934Z,14.50
2017-05-20T05:33:36.438Z,14.50
2017-05-20T05:36:06.000Z,14.70
2017-05-20T05:38:35.501Z,14.90
2017-05-20T05:41:05.027Z,14.70
2017-05-20T05:43:34.522Z,14.70
2017-05-20T05:46:04.040Z,14.70
2017-05-20T05:48:33.545Z,14.90
2017-05-20T05:51:03.096Z,15.00
2017-05-20T05:53:32.599Z,15.00
2017-05-20T05:56:02.120Z,15.30
2017-05-20T05:58:31.638Z,15.60
2017-05-20T06:01:01.144Z,15.70
2017-05-20T06:03:30.660Z,15.50
2017-05-20T06:06:00.160Z,15.40
2017-05-20T06:08:29.667Z,15.30
2017-05-20T06:10:59.188Z,15.10
2017-05-20T06:13:28.723Z,15.20
2017-05-20T06:15:58.228Z,15.10
2017-05-20T06:18:27.755Z,15.30
2017-05-20T06:20:57.422Z,15.30
2017-05-20T06:23:27.006Z,15.40
2017-05-20T06:25:56.516Z,15.40
2017-05-20T06:28:26.047Z,15.70
2017-05-20T06:30:55.551Z,15.50
2017-05-20T06:33:25.088Z,15.50
2017-05-20T06:35:54.594Z,15.80
2017-05-20T06:38:24.103Z,16.20
2017-05-20T06:40:53.614Z,16.10
2017-05-20T06:43:23.131Z,15.90
2017-05-20T06:45:52.661Z,15.90
2017-05-20T06:48:22.170Z,15.90
2017-05-20T06:50:51.687Z,16.00
2017-05-20T06:53:21.180Z,15.90
2017-05-20T06:55:50.703Z,15.80
2017-05-20T06:58:20.209Z,16.00
2017-05-20T07:00:49.719Z,16.00
2017-05-20T07:03:19.227Z,15.90
2017-05-20T07:05:48.773Z,16.00
2017-05-20T07:08:18.273Z,16.10
2017-05-20T07:10:47.778Z,16.10
2017-05-20T07:13:17.277Z,16.10
2017-05-20T07:15:46.791Z,16.10
2017-05-20T07:18:16.297Z,15.80
2017-05-20T07:20:45.813Z,15.90
2017-05-20T07:23:15.448Z,16.10
2017-05-20T07:25:44.960Z,16.60
2017-05-20T07:28:14.580Z,16.70
2017-05-20T07:30:44.145Z,16.90
2017-05-20T07:33:13.670Z,16.90
2017-05-20T07:35:43.178Z,16.90
2017-05-20T07:38:12.506Z,16.70
2017-05-20T07:40:41.823Z,16.60
2017-05-20T07:43:11.359Z,16.70
2017-05-20T07:45:40.872Z,17.10
2017-05-20T07:48:10.364Z,17.10
2017-05-20T07:50:39.862Z,17.10
2017-05-20T07:53:09.370Z,17.10
2017-05-20T07:55:38.868Z,16.90
2017-05-20T07:58:08.395Z,17.00
2017-05-20T08:00:37.925Z,17.60
2017-05-20T08:03:07.486Z,18.20
2017-05-20T08:05:37.016Z,18.60
2017-05-20T08:08:06.545Z,19.00
2017-05-20T08:10:35.797Z,19.80
2017-05-20T08:13:05.045Z,20.00
2017-05-20T08:15:34.445Z,20.50
2017-05-20T08:18:03.863Z,20.90
2017-05-20T08:20:33.152Z,20.90
2017-05-20T08:23:02.397Z,20.90
2017-05-20T08:25:31.673Z,21.10
2017-05-20T08:28:00.908Z,20.90
2017-05-20T08:30:30.165Z,20.90
2017-05-20T08:33:00.117Z,20.70
2017-05-20T08:35:29.368Z,20.80
2017-05-20T08:37:58.603Z,21.00
2017-05-20T08:40:27.850Z,21.10
2017-05-20T08:42:57.103Z,21.10
2017-05-20T08:45:26.373Z,21.20
2017-05-20T08:47:55.590Z,21.60
2017-05-20T08:50:24.832Z,21.50
2017-05-20T08:52:54.070Z,21.70
2017-05-20T08:55:23.489Z,20.90
2017-05-20T08:57:52.711Z,20.70
2017-05-20T09:00:21.957Z,20.80
2017-05-20T09:02:51.220Z,21.20
2017-05-20T09:05:20.448Z,21.30
2017-05-20T09:07:49.712Z,20.80
2017-05-20T09:10:18.954Z,20.70
2017-05-20T09:12:48.372Z,20.90
2017-05-20T09:15:17.594Z,20.80
2017-05-20T09:17:46.857Z,20.50
2017-05-20T09:20:16.112Z,20.30
2017-05-20T09:22:45.366Z,20.10
2017-05-20T09:25:14.600Z,20.10
2017-05-20T09:27:43.857Z,20.60
2017-05-20T09:30:13.080Z,20.60
2017-05-20T09:32:42.374Z,20.90
2017-05-20T09:35:11.620Z,21.20
2017-05-20T09:37:41.169Z,21.20
2017-05-20T09:40:10.402Z,21.60
2017-05-20T09:42:39.693Z,22.70
2017-05-20T09:45:08.917Z,22.80
2017-05-20T09:47:38.199Z,22.60
2017-05-20T09:50:07.503Z,22.00
2017-05-20T09:52:36.736Z,21.90
2017-05-20T09:55:06.004Z,22.00
2017-05-20T09:57:35.241Z,22.10
2017-05-20T10:00:04.565Z,21.60
2017-05-20T10:02:33.792Z,21.60
2017-05-20T10:05:03.124Z,21.80
2017-05-20T10:07:32.365Z,21.60
2017-05-20T10:10:01.622Z,21.20
2017-05-20T10:12:30.869Z,21.10
2017-05-20T10:15:00.128Z,21.30
2017-05-20T10:17:29.363Z,21.80
2017-05-20T10:19:58.629Z,21.80
2017-05-20T10:22:27.864Z,21.50
2017-05-20T10:24:57.161Z,21.30
2017-05-20T10:27:26.389Z,21.10
2017-05-20T10:29:55.694Z,21.80
2017-05-20T10:32:24.964Z,22.00
2017-05-20T10:34:54.194Z,21.40
2017-05-20T10:37:23.566Z,21.10
2017-05-20T10:39:52.828Z,20.70
2017-05-20T10:42:22.282Z,20.50
2017-05-20T10:44:51.531Z,20.70
2017-05-20T10:47:20.784Z,21.00
2017-05-20T10:49:50.003Z,21.10
2017-05-20T10:52:19.263Z,21.10
2017-05-20T10:54:48.495Z,21.20
2017-05-20T10:57:17.782Z,21.80
2017-05-20T10:59:47.005Z,23.30
2017-05-20T11:02:16.262Z,23.60
2017-05-20T11:04:45.494Z,23.60
2017-05-20T11:07:14.719Z,24.30
2017-05-20T11:09:43.969Z,23.80
2017-05-20T11:12:13.205Z,23.40
2017-05-20T11:14:42.447Z,23.30
2017-05-20T11:17:11.681Z,23.00
2017-05-20T11:19:40.931Z,22.70
2017-05-20T11:22:10.152Z,22.90
2017-05-20T11:24:39.403Z,23.20
2017-05-20T11:27:08.638Z,23.40
2017-05-20T11:29:37.912Z,23.70
2017-05-20T11:32:07.207Z,23.50
2017-05-20T11:34:36.477Z,23.20
2017-05-20T11:37:05.728Z,23.40
2017-05-20T11:39:35.028Z,24.70
2017-05-20T11:42:04.259Z,24.60
2017-05-20T11:44:33.519Z,24.00
2017-05-20T11:47:02.763Z,23.30
2017-05-20T11:49:31.993Z,23.40
2017-05-20T11:52:01.235Z,23.50
2017-05-20T11:54:30.477Z,23.20
2017-05-20T11:56:59.716Z,22.90
2017-05-20T11:59:28.954Z,23.00
2017-05-20T12:01:58.213Z,22.70
2017-05-20T12:04:27.447Z,22.10
2017-05-20T12:06:56.692Z,21.80
2017-05-20T12:09:25.951Z,21.20
2017-05-20T12:11:55.211Z,21.10
2017-05-20T12:14:24.480Z,21.10
2017-05-20T12:16:53.711Z,21.30
2017-05-20T12:19:23.024Z,21.20
2017-05-20T12:21:52.255Z,20.70
2017-05-20T12:24:21.511Z,20.60
2017-05-20T12:26:50.777Z,20.50
2017-05-20T12:29:20.023Z,20.40
2017-05-20T12:31:49.282Z,20.70
2017-05-20T12:34:18.547Z,20.90
2017-05-20T12:36:47.790Z,20.80
2017-05-20T12:39:17.044Z,20.70
2017-05-20T12:44:18.244Z,20.20
2017-05-20T12:46:47.484Z,20.20
2017-05-20T12:49:16.768Z,20.30
2017-05-20T12:51:46.114Z,20.60
2017-05-20T12:54:15.360Z,20.90
2017-05-20T12:56:44.620Z,21.20
2017-05-20T12:59:13.904Z,21.20
2017-05-20T13:01:43.160Z,20.80
2017-05-20T13:04:12.401Z,20.60
2017-05-20T13:06:41.669Z,20.60
2017-05-20T13:09:10.935Z,20.70
2017-05-20T13:11:40.333Z,20.70
2017-05-20T13:14:09.600Z,21.10
2017-05-20T13:16:38.854Z,21.10
2017-05-20T13:19:08.111Z,21.10
2017-05-20T13:21:37.377Z,21.30
2017-05-20T13:24:06.596Z,21.40
2017-05-20T13:26:35.868Z,21.70
2017-05-20T13:29:05.101Z,22.50
2017-05-20T13:31:34.356Z,22.50
2017-05-20T13:34:03.604Z,22.00
2017-05-20T13:36:32.896Z,21.50
2017-05-20T13:39:02.171Z,21.30
2017-05-20T13:41:31.433Z,20.90
2017-05-20T13:44:00.677Z,20.80
2017-05-20T13:46:29.979Z,20.80
2017-05-20T13:48:59.263Z,21.00
2017-05-20T13:51:28.492Z,21.10
2017-05-20T13:53:57.852Z,21.40
2017-05-20T13:56:27.083Z,21.30
2017-05-20T13:58:56.396Z,21.50
2017-05-20T14:01:25.646Z,21.80
2017-05-20T14:03:54.968Z,21.60
2017-05-20T14:06:24.262Z,21.20
2017-05-20T14:08:53.536Z,20.90
2017-05-20T14:11:22.764Z,20.80
2017-05-20T14:13:52.080Z,20.90
2017-05-20T14:16:21.374Z,21.10
2017-05-20T14:18:50.781Z,20.90
2017-05-20T14:21:20.141Z,20.70
2017-05-20T14:23:49.420Z,20.60
2017-05-20T14:26:18.702Z,20.40
2017-05-20T14:28:47.960Z,20.20
2017-05-20T14:31:17.321Z,20.30
2017-05-20T14:33:46.558Z,20.40
2017-05-20T14:36:15.820Z,20.50
2017-05-20T14:38:45.055Z,20.80
2017-05-20T14:41:14.310Z,21.30
2017-05-20T14:43:43.563Z,21.60
2017-05-20T14:46:12.843Z,21.80
2017-05-20T14:48:42.084Z,22.00
2017-05-20T14:51:11.351Z,21.90
2017-05-20T14:53:40.586Z,21.70
2017-05-20T14:56:09.820Z,21.30
2017-05-20T14:58:39.114Z,21.10
2017-05-20T15:01:08.416Z,20.90
2017-05-20T15:03:37.686Z,21.00
2017-05-20T15:06:07.009Z,21.10
2017-05-20T15:08:36.465Z,20.90
2017-05-20T15:11:08.713Z,20.90
2017-05-20T15:13:37.960Z,21.10
2017-05-20T15:16:07.255Z,21.20
2017-05-20T15:18:36.506Z,21.20
2017-05-20T15:21:05.731Z,21.30
2017-05-20T15:23:34.973Z,21.40
2017-05-20T15:26:04.259Z,21.40
2017-05-20T15:28:33.476Z,21.30
2017-05-20T15:31:02.735Z,21.20
2017-05-20T15:33:32.069Z,21.30
2017-05-20T15:36:01.325Z,21.50
2017-05-20T15:38:30.604Z,21.50
2017-05-20T15:40:59.844Z,21.40
2017-05-20T15:43:29.080Z,21.30
2017-05-20T15:45:58.333Z,21.20
2017-05-20T15:48:27.576Z,21.20
2017-05-20T15:50:56.870Z,21.20
2017-05-20T15:53:26.104Z,21.30
2017-05-20T15:55:55.399Z,21.50
2017-05-20T15:58:24.633Z,21.60
2017-05-20T16:00:53.882Z,21.30
2017-05-20T16:03:23.136Z,21.10
2017-05-20T16:05:52.410Z,21.10
2017-05-20T16:08:21.657Z,21.10
2017-05-20T16:10:50.900Z,21.20
2017-05-20T16:13:20.251Z,21.00
2017-05-20T16:15:49.501Z,21.00
2017-05-20T16:18:18.731Z,20.80
2017-05-20T16:20:48.019Z,20.60
2017-05-20T16:23:17.266Z,20.70
2017-05-20T16:25:46.658Z,20.70
2017-05-20T16:28:15.915Z,20.60
2017-05-20T16:30:45.199Z,20.50
2017-05-20T16:33:14.456Z,20.40
2017-05-20T16:35:43.693Z,20.40
2017-05-20T16:38:12.972Z,20.50
2017-05-20T16:40:42.213Z,20.40
2017-05-20T16:43:11.467Z,20.50
2017-05-20T16:45:40.742Z,20.50
2017-05-20T16:48:10.013Z,20.50
2017-05-20T16:50:39.242Z,20.30
2017-05-20T16:53:08.503Z,20.10
2017-05-20T16:55:37.784Z,20.00
2017-05-20T16:58:07.037Z,20.00
2017-05-20T17:00:36.267Z,20.00
2017-05-20T17:03:05.528Z,20.10
2017-05-20T17:05:34.769Z,20.20
2017-05-20T17:08:04.046Z,20.20
2017-05-20T17:10:33.375Z,20.20
2017-05-20T17:13:02.623Z,20.20
2017-05-20T17:15:31.873Z,20.10
2017-05-20T17:18:01.111Z,20.00
2017-05-20T17:20:30.786Z,19.90
2017-05-20T17:23:00.091Z,19.90
2017-05-20T17:25:29.339Z,19.90
2017-05-20T17:27:59.156Z,19.90
2017-05-20T17:30:28.440Z,19.90
2017-05-20T17:32:57.672Z,19.90
2017-05-20T17:35:26.919Z,19.80
2017-05-20T17:37:56.154Z,19.80
2017-05-20T17:40:25.419Z,19.70
2017-05-20T17:42:54.669Z,19.80
2017-05-20T17:45:23.956Z,19.80
2017-05-20T17:47:53.455Z,19.60
2017-05-20T17:50:22.695Z,19.50
2017-05-20T17:52:52.226Z,19.50
2017-05-20T17:55:21.728Z,19.40
2017-05-20T17:57:51.243Z,19.40
2017-05-20T18:00:20.778Z,19.20
2017-05-20T18:02:50.300Z,19.20
2017-05-20T18:05:19.544Z,19.30
2017-05-20T18:07:49.084Z,19.30
2017-05-20T18:10:18.607Z,19.20
2017-05-20T18:12:48.151Z,19.20
2017-05-20T18:15:17.655Z,19.10
2017-05-20T18:17:47.177Z,19.00
2017-05-20T18:20:16.687Z,19.10
2017-05-20T18:22:46.241Z,19.00
2017-05-20T18:25:15.987Z,19.10
2017-05-20T18:27:45.543Z,19.10
2017-05-20T18:30:15.058Z,19.00
2017-05-20T18:32:44.588Z,19.00
2017-05-20T18:35:14.097Z,18.90
2017-05-20T18:37:43.668Z,18.80
2017-05-20T18:40:13.211Z,18.80
2017-05-20T18:42:42.801Z,18.80
2017-05-20T18:45:12.378Z,18.80
2017-05-20T18:47:41.906Z,18.80
2017-05-20T18:50:11.462Z,18.80
2017-05-20T18:52:44.037Z,18.80
2017-05-20T18:55:13.636Z,18.80
2017-05-20T18:57:43.167Z,18.80
2017-05-20T19:00:12.690Z,18.70
2017-05-20T19:02:42.210Z,18.70
2017-05-20T19:05:11.738Z,18.60
2017-05-20T19:07:41.308Z,18.60
2017-05-20T19:10:10.862Z,18.50
2017-05-20T19:12:40.414Z,18.50
2017-05-20T19:15:10.002Z,18.50
2017-05-20T19:17:39.500Z,18.40
2017-05-20T19:20:09.017Z,18.30
2017-05-20T19:22:38.529Z,18.30
2017-05-20T19:25:08.415Z,18.20
2017-05-20T19:27:39.364Z,18.10
2017-05-20T19:30:08.884Z,18.10
2017-05-20T19:32:38.412Z,18.00
2017-05-20T19:35:07.921Z,17.90
2017-05-20T19:37:37.552Z,18.00
2017-05-20T19:40:07.053Z,18.10
2017-05-20T19:42:36.610Z,17.90
2017-05-20T19:45:06.302Z,17.80
2017-05-20T19:47:35.869Z,17.80
2017-05-20T19:50:05.367Z,17.70
2017-05-20T19:52:34.888Z,17.70
2017-05-20T19:55:04.436Z,17.60
2017-05-20T19:57:33.964Z,17.60
2017-05-20T20:00:03.467Z,17.60
2017-05-20T20:02:33.047Z,17.60
2017-05-20T20:05:02.576Z,17.50
2017-05-20T20:07:32.096Z,17.50
2017-05-20T20:10:01.627Z,17.50
2017-05-20T20:12:31.134Z,17.40
2017-05-20T20:15:00.676Z,17.40
2017-05-20T20:17:30.188Z,17.30
2017-05-20T20:19:59.762Z,17.30
2017-05-20T20:22:29.314Z,17.30
2017-05-20T20:24:59.068Z,17.30
2017-05-20T20:27:28.591Z,17.40
2017-05-20T20:29:58.125Z,17.30
2017-05-20T20:32:27.640Z,17.30
2017-05-20T20:34:57.257Z,17.30
2017-05-20T20:37:26.779Z,17.30
2017-05-20T20:39:56.370Z,17.20
2017-05-20T20:42:25.887Z,17.20
2017-05-20T20:44:55.415Z,17.10
2017-05-20T20:47:24.988Z,17.20
2017-05-20T20:49:54.532Z,17.20
2017-05-20T20:52:24.039Z,17.10
2017-05-20T20:54:53.579Z,17.10
2017-05-20T20:57:23.116Z,17.10
2017-05-20T20:59:53.567Z,17.00
2017-05-20T21:02:23.084Z,17.00
2017-05-20T21:04:52.623Z,16.90
2017-05-20T21:07:22.162Z,16.90
2017-05-20T21:09:51.742Z,16.80
2017-05-20T21:12:21.289Z,16.70
2017-05-20T21:14:50.823Z,16.70
2017-05-20T21:17:20.368Z,16.60
2017-05-20T21:19:49.535Z,16.60
2017-05-20T21:22:19.094Z,16.50
2017-05-20T21:24:48.624Z,16.50
2017-05-20T21:27:18.172Z,16.50
2017-05-20T21:29:47.703Z,16.40
2017-05-20T21:32:17.229Z,16.40
2017-05-20T21:34:46.827Z,16.40
2017-05-20T21:37:16.370Z,16.40
2017-05-20T21:39:45.962Z,16.40
2017-05-20T21:42:15.522Z,16.40
2017-05-20T21:44:45.121Z,16.40
2017-05-20T21:47:14.718Z,16.40
2017-05-20T21:49:44.257Z,16.40
2017-05-20T21:52:13.773Z,16.40
2017-05-20T21:54:43.389Z,16.40
2017-05-20T21:57:12.944Z,16.40
2017-05-20T21:59:42.475Z,16.40
2017-05-20T22:02:11.988Z,16.40
2017-05-20T22:04:41.568Z,16.30
2017-05-20T22:07:11.088Z,16.20
2017-05-20T22:09:40.627Z,16.20
2017-05-20T22:12:10.160Z,16.20
2017-05-20T22:14:39.711Z,16.30
2017-05-20T22:17:09.228Z,16.20
2017-05-20T22:19:38.743Z,16.20
2017-05-20T22:22:08.408Z,16.20
2017-05-20T22:24:37.964Z,16.20
2017-05-20T22:27:07.681Z,16.20
2017-05-20T22:29:37.219Z,16.20
2017-05-20T22:32:06.777Z,16.20
2017-05-20T22:34:36.298Z,16.20
2017-05-20T22:37:06.157Z,16.20
2017-05-20T22:39:35.890Z,16.10
2017-05-20T22:42:05.418Z,16.10
2017-05-20T22:44:34.973Z,16.10
2017-05-20T22:47:04.509Z,16.00
2017-05-20T22:49:34.035Z,16.00
2017-05-20T22:52:03.595Z,16.00
2017-05-20T22:54:33.597Z,15.90
2017-05-20T22:57:03.141Z,15.80
2017-05-20T22:59:32.651Z,15.80
2017-05-20T23:02:02.193Z,15.80
2017-05-20T23:04:31.728Z,15.80
2017-05-20T23:07:01.265Z,15.70
2017-05-20T23:09:30.801Z,15.60
2017-05-20T23:12:00.340Z,15.60
2017-05-20T23:14:29.839Z,15.60
2017-05-20T23:16:59.367Z,15.50
2017-05-20T23:19:28.913Z,15.50
2017-05-20T23:21:58.440Z,15.40
2017-05-20T23:24:27.963Z,15.30
2017-05-20T23:26:57.142Z,15.20
2017-05-20T23:29:26.680Z,15.10
2017-05-20T23:31:56.200Z,15.00
2017-05-20T23:34:25.742Z,15.00
2017-05-20T23:36:55.264Z,14.90
2017-05-20T23:39:24.800Z,14.90
2017-05-20T23:41:54.339Z,14.90
2017-05-20T23:44:23.884Z,14.80
2017-05-20T23:46:53.453Z,14.90
2017-05-20T23:49:22.998Z,14.90
2017-05-20T23:51:52.505Z,14.90
2017-05-20T23:54:22.063Z,14.90
2017-05-20T23:56:51.575Z,14.90
2017-05-20T23:59:21.112Z,14.70
